Time;durP1;ratioP1;P1;durP2;ratioP2;P2;SDS_P1;SDS_P2;PMS_P1;PMS_P2;Temp;Humidity;BMP_temperature;BMP_pressure;BME280_temperature;BME280_humidity;BME280_pressure;Samples;Min_cycle;Max_cycle;Signal;HPM_P1;HPM_P2
2023/12/31 00:01:45;;;;;;;5.83;3.70;;;;;;;4.05;86.46;100119.47;1664901;85;25463;-55
2023/12/31 00:04:12;;;;;;;6.90;3.85;;;;;;;4.07;86.52;100120.83;1689558;84;25501;-56
2023/12/31 00:06:38;;;;;;;5.65;3.60;;;;;;;4.07;86.68;100118.15;1689558;84;25673;-55
2023/12/31 00:09:04;;;;;;;7.65;3.72;;;;;;;4.06;86.57;100116.53;1689628;84;25483;-56
2023/12/31 00:11:30;;;;;;;5.10;2.75;;;;;;;4.05;86.62;100112.27;1689515;84;28103;-56
2023/12/31 00:13:57;;;;;;;5.03;2.67;;;;;;;4.02;86.69;100111.47;1663517;85;25455;-56
2023/12/31 00:16:23;;;;;;;5.35;2.87;;;;;;;4.03;86.67;100119.74;1689522;84;25528;-56
2023/12/31 00:18:50;;;;;;;4.85;2.47;;;;;;;4.00;86.34;100113.61;1663694;85;25595;-55
2023/12/31 00:21:16;;;;;;;5.50;2.60;;;;;;;3.95;86.33;100112.28;1689580;84;25390;-55
2023/12/31 00:23:42;;;;;;;6.92;3.10;;;;;;;3.92;86.42;100119.50;1663686;85;27341;-55
2023/12/31 00:26:08;;;;;;;4.50;2.35;;;;;;;3.88;86.34;100123.77;1689471;85;25624;-53
2023/12/31 00:28:35;;;;;;;6.37;2.33;;;;;;;3.84;86.22;100125.38;1663717;85;25481;-55
2023/12/31 00:31:01;;;;;;;7.70;3.00;;;;;;;3.81;86.62;100132.61;1663776;85;25627;-56
2023/12/31 00:33:28;;;;;;;14.25;6.03;;;;;;;3.77;86.94;100124.86;1663730;85;25433;-52
2023/12/31 00:35:54;;;;;;;22.73;11.22;;;;;;;3.73;87.11;100121.38;1663817;85;28112;-54
2023/12/31 00:38:20;;;;;;;12.40;7.15;;;;;;;3.75;87.15;100126.45;1689404;85;25160;-53
2023/12/31 00:40:46;;;;;;;10.58;6.22;;;;;;;3.73;87.40;100125.93;1689528;85;25465;-55
2023/12/31 00:43:13;;;;;;;9.50;5.10;;;;;;;3.73;87.62;100128.61;1686799;84;25638;-54
2023/12/31 00:45:39;;;;;;;6.42;4.60;;;;;;;3.73;87.71;100129.40;1689490;85;25421;-54
2023/12/31 00:48:06;;;;;;;6.15;2.90;;;;;;;3.70;87.67;100131.27;1686817;84;27340;-56
2023/12/31 00:50:32;;;;;;;7.37;2.50;;;;;;;3.70;87.31;100131.81;1689396;85;25697;-57
2023/12/31 00:52:59;;;;;;;5.37;3.02;;;;;;;3.67;87.59;100135.80;1689479;85;25468;-54
2023/12/31 00:55:25;;;;;;;7.17;2.83;;;;;;;3.62;87.27;100137.68;1689448;85;25677;-52
2023/12/31 00:57:51;;;;;;;4.08;2.58;;;;;;;3.60;87.36;100139.83;1689459;85;25445;-55
2023/12/31 01:00:18;;;;;;;6.92;2.75;;;;;;;3.57;87.35;100144.36;1689470;85;27443;-52
2023/12/31 01:02:44;;;;;;;7.78;2.62;;;;;;;3.51;87.71;100143.56;1692596;84;25569;-56
2023/12/31 01:05:11;;;;;;;5.67;3.30;;;;;;;3.49;87.58;100148.34;1670737;84;25513;-55
2023/12/31 01:07:37;;;;;;;5.00;3.12;;;;;;;3.44;87.50;100150.50;1675970;85;26405;-55
2023/12/31 01:10:05;;;;;;;9.18;4.15;;;;;;;3.39;87.69;100149.16;1671006;84;25448;-54
2023/12/31 01:12:31;;;;;;;6.28;2.92;;;;;;;3.35;87.60;100150.73;1690450;84;27334;-55
2023/12/31 01:14:57;;;;;;;7.05;2.87;;;;;;;3.28;87.12;100157.66;1668146;84;25717;-53
2023/12/31 01:17:23;;;;;;;7.08;2.72;;;;;;;3.23;87.46;100155.52;1690435;84;25499;-56
2023/12/31 01:19:50;;;;;;;8.08;3.10;;;;;;;3.18;87.67;100157.12;1668349;84;25613;-53
2023/12/31 01:22:16;;;;;;;7.62;3.47;;;;;;;3.12;87.52;100162.71;1690475;84;25487;-53
2023/12/31 01:24:42;;;;;;;5.53;3.20;;;;;;;3.11;87.85;100162.43;1690401;84;28052;-52
2023/12/31 01:27:08;;;;;;;7.30;3.50;;;;;;;3.09;88.46;100166.70;1690414;84;25394;-54
2023/12/31 01:29:38;;;;;;;6.53;3.67;;;;;;;3.08;88.72;100167.78;1690523;84;25510;-56
2023/12/31 01:32:05;;;;;;;4.40;2.95;;;;;;;3.08;88.82;100168.30;1690569;84;26344;-56
2023/12/31 01:34:32;;;;;;;6.60;3.55;;;;;;;3.08;88.82;100169.63;1690521;84;25511;-56
2023/12/31 01:36:58;;;;;;;9.63;3.98;;;;;;;3.08;89.02;100169.63;1690501;84;28089;-52
2023/12/31 01:39:24;;;;;;;7.55;3.35;;;;;;;3.07;89.09;100176.06;1690353;84;25426;-51
2023/12/31 01:41:51;;;;;;;10.23;5.00;;;;;;;3.06;89.24;100175.23;1690453;84;25408;-54
2023/12/31 01:44:17;;;;;;;8.60;4.35;;;;;;;3.07;89.30;100178.19;1690383;84;25566;-52
2023/12/31 01:46:44;;;;;;;10.65;4.15;;;;;;;3.07;89.61;100174.18;1668427;84;25542;-52
2023/12/31 01:49:11;;;;;;;11.88;4.37;;;;;;;3.09;89.63;100173.92;1668350;84;27355;-53
2023/12/31 01:51:37;;;;;;;8.08;4.00;;;;;;;3.09;90.04;100170.70;1667982;84;25574;-53
2023/12/31 01:54:05;;;;;;;9.23;4.33;;;;;;;3.10;90.11;100175.51;1690399;84;25405;-52
2023/12/31 01:56:37;;;;;;;9.35;4.58;;;;;;;3.09;90.11;100169.91;1690406;84;25611;-51
2023/12/31 01:59:06;;;;;;;12.13;5.97;;;;;;;3.09;90.11;100173.38;1690418;84;25510;-52
2023/12/31 02:01:38;;;;;;;7.75;4.83;;;;;;;3.10;90.17;100173.66;1668296;84;27412;-55
2023/12/31 02:04:02;;;;;;;8.38;4.15;;;;;;;3.09;89.97;100168.58;1689571;84;25529;-52
2023/12/31 02:06:28;;;;;;;7.58;4.00;;;;;;;3.07;89.77;100166.70;1668440;84;25531;-54
2023/12/31 02:08:55;;;;;;;6.37;3.30;;;;;;;3.04;89.70;100172.56;1670751;84;26237;-55
2023/12/31 02:11:22;;;;;;;6.95;4.03;;;;;;;2.99;89.45;100179.48;1670599;84;25479;-55
2023/12/31 02:13:48;;;;;;;5.70;3.42;;;;;;;2.96;89.46;100181.88;1670849;84;28085;-53
2023/12/31 02:16:15;;;;;;;7.47;3.62;;;;;;;2.92;89.25;100182.93;1602886;87;25590;-56
2023/12/31 02:18:43;;;;;;;8.05;3.65;;;;;;;2.93;89.44;100181.08;1692676;84;25408;-54
2023/12/31 02:21:12;;;;;;;5.47;3.77;;;;;;;2.91;89.82;100185.34;1624282;87;26149;-54
2023/12/31 02:23:39;;;;;;;7.45;3.75;;;;;;;2.92;90.01;100189.61;1692670;84;25400;-56
2023/12/31 02:26:10;;;;;;;6.47;3.98;;;;;;;2.90;89.86;100182.39;1647047;87;27404;-56
2023/12/31 02:28:37;;;;;;;8.05;4.10;;;;;;;2.92;89.88;100182.13;1670528;84;25538;-56
2023/12/31 02:31:05;;;;;;;7.17;3.55;;;;;;;2.92;90.18;100173.58;1675887;85;25448;-53
2023/12/31 02:33:32;;;;;;;6.72;3.70;;;;;;;2.93;90.05;100181.08;1692645;84;26347;-53
2023/12/31 02:35:58;;;;;;;8.33;3.33;;;;;;;2.92;89.69;100174.91;1668265;84;25494;-51
2023/12/31 02:38:25;;;;;;;5.50;4.05;;;;;;;2.92;89.73;100180.26;1690552;84;27348;-53
2023/12/31 02:40:51;;;;;;;7.70;3.47;;;;;;;2.90;89.91;100175.72;1668402;84;25449;-51
2023/12/31 02:43:18;;;;;;;7.67;3.75;;;;;;;2.87;89.90;100180.23;1690540;84;25544;-54
2023/12/31 02:45:44;;;;;;;9.00;4.25;;;;;;;2.84;89.59;100186.09;1668456;84;25630;-54
2023/12/31 02:48:11;;;;;;;11.33;4.17;;;;;;;2.79;89.66;100182.06;1668468;84;25430;-54
2023/12/31 02:50:37;;;;;;;6.45;4.00;;;;;;;2.74;89.60;100188.71;1690558;84;27401;-52
2023/12/31 02:53:04;;;;;;;6.42;4.25;;;;;;;2.67;89.37;100190.81;1690464;84;25570;-52
2023/12/31 02:55:30;;;;;;;9.30;4.80;;;;;;;2.61;89.37;100195.33;1668301;84;25470;-55
2023/12/31 02:57:56;;;;;;;10.65;5.87;;;;;;;2.55;89.21;100199.82;1645832;84;26165;-55
2023/12/31 03:00:23;;;;;;;12.07;6.42;;;;;;;2.52;89.41;100204.88;1692827;84;25497;-52
2023/12/31 03:02:49;;;;;;;11.25;6.05;;;;;;;2.47;89.49;100204.84;1690116;84;27345;-52
2023/12/31 03:05:15;;;;;;;11.05;6.58;;;;;;;2.41;89.49;100205.34;1689449;85;25502;-53
2023/12/31 03:07:42;;;;;;;12.82;6.55;;;;;;;2.33;89.38;100209.28;1689566;85;25478;-52
2023/12/31 03:10:09;;;;;;;14.78;6.97;;;;;;;2.23;89.29;100204.69;1689512;85;25620;-53
2023/12/31 03:12:35;;;;;;;13.32;7.58;;;;;;;2.15;89.19;100207.83;1689535;85;25478;-54
2023/12/31 03:15:03;;;;;;;11.63;5.60;;;;;;;2.04;89.07;100206.95;1663372;85;27420;-52
2023/12/31 03:17:29;;;;;;;12.13;6.40;;;;;;;1.96;89.12;100199.91;1689445;85;25625;-53
2023/12/31 03:19:57;;;;;;;10.25;7.42;;;;;;;1.90;89.09;100208.94;1689557;84;25473;-52
2023/12/31 03:22:23;;;;;;;12.80;6.75;;;;;;;1.83;89.35;100199.27;1689505;84;25602;-53
2023/12/31 03:24:50;;;;;;;14.38;6.72;;;;;;;1.76;89.50;100209.34;1689541;85;25406;-52
2023/12/31 03:27:16;;;;;;;14.70;6.33;;;;;;;1.72;89.81;100215.43;1689514;85;27345;-53
2023/12/31 03:29:43;;;;;;;11.55;7.00;;;;;;;1.66;89.88;100222.05;1689409;85;25610;-53
2023/12/31 03:32:09;;;;;;;13.50;6.53;;;;;;;1.61;90.11;100227.86;1663720;85;25464;-53
2023/12/31 03:34:36;;;;;;;14.15;6.95;;;;;;;1.52;89.57;100230.70;1689495;85;25762;-54
2023/12/31 03:37:02;;;;;;;11.48;6.50;;;;;;;1.41;89.53;100230.56;1689556;85;25509;-54
2023/12/31 03:39:29;;;;;;;10.18;6.40;;;;;;;1.36;90.04;100234.51;1663765;85;27442;-54
2023/12/31 03:41:55;;;;;;;10.82;6.47;;;;;;;1.36;90.68;100241.70;1689444;85;25497;-52
2023/12/31 03:44:22;;;;;;;10.60;6.47;;;;;;;1.34;91.13;100233.95;1689518;85;25543;-54
2023/12/31 03:46:48;;;;;;;11.43;6.55;;;;;;;1.34;91.52;100235.29;1663762;85;25728;-50
2023/12/31 03:49:14;;;;;;;12.63;5.55;;;;;;;1.36;91.95;100238.50;1689512;84;25500;-56
2023/12/31 03:51:41;;;;;;;7.92;5.50;;;;;;;1.38;92.24;100236.92;1689530;84;27350;-56
2023/12/31 03:54:08;;;;;;;13.22;5.80;;;;;;;1.40;92.52;100239.63;1663585;85;25464;-53
2023/12/31 03:56:35;;;;;;;11.25;5.90;;;;;;;1.42;92.74;100241.52;1689524;85;25449;-54
2023/12/31 03:59:01;;;;;;;10.72;5.42;;;;;;;1.46;93.06;100242.65;1663712;85;25681;-53
2023/12/31 04:01:28;;;;;;;8.48;4.97;;;;;;;1.49;93.06;100236.80;1689455;85;25463;-56
2023/12/31 04:03:54;;;;;;;10.55;5.70;;;;;;;1.53;92.92;100232.30;1663809;85;27426;-56
2023/12/31 04:06:21;;;;;;;10.68;5.62;;;;;;;1.55;92.90;100229.68;1689423;85;25499;-53
2023/12/31 04:08:48;;;;;;;7.85;5.75;;;;;;;1.56;93.02;100226.48;1643140;85;25537;-54
2023/12/31 04:11:14;;;;;;;9.90;5.70;;;;;;;1.58;93.07;100225.69;1670317;85;25608;-53
2023/12/31 04:13:41;;;;;;;11.12;5.92;;;;;;;1.57;92.99;100221.44;1643129;85;25525;-57
2023/12/31 04:16:11;;;;;;;9.13;5.65;;;;;;;1.56;92.88;100221.94;1670353;85;27364;-54
2023/12/31 04:18:37;;;;;;;11.15;5.20;;;;;;;1.57;92.48;100224.10;1670379;85;25621;-53
2023/12/31 04:21:04;;;;;;;11.38;5.30;;;;;;;1.55;92.27;100228.34;1670356;85;25444;-53
2023/12/31 04:23:30;;;;;;;10.60;5.75;;;;;;;1.54;92.32;100219.27;1621303;85;26532;-55
2023/12/31 04:25:57;;;;;;;9.83;4.72;;;;;;;1.53;92.45;100225.64;1670377;85;25408;-55
2023/12/31 04:28:23;;;;;;;9.58;5.10;;;;;;;1.53;92.69;100229.10;1670341;85;27334;-57
2023/12/31 04:30:50;;;;;;;8.10;5.17;;;;;;;1.54;92.92;100235.26;1670267;85;25467;-56
2023/12/31 04:33:16;;;;;;;9.33;5.20;;;;;;;1.57;93.07;100237.43;1670460;85;25443;-55
2023/12/31 04:35:43;;;;;;;11.38;5.45;;;;;;;1.60;93.12;100230.23;1670458;84;25487;-61
2023/12/31 04:38:09;;;;;;;7.47;4.85;;;;;;;1.62;93.28;100234.28;1670775;85;25476;-55
2023/12/31 04:40:36;;;;;;;9.20;5.00;;;;;;;1.65;93.36;100236.95;1670649;85;27381;-55
2023/12/31 04:43:03;;;;;;;9.68;5.22;;;;;;;1.67;93.49;100234.88;1621715;85;25581;-57
2023/12/31 04:45:29;;;;;;;10.23;5.12;;;;;;;1.70;93.59;100237.55;1670283;85;25447;-55
2023/12/31 04:47:56;;;;;;;8.78;5.28;;;;;;;1.73;93.69;100237.05;1643095;85;25623;-53
2023/12/31 04:50:22;;;;;;;8.85;5.05;;;;;;;1.75;93.80;100236.27;1643135;85;25533;-56
2023/12/31 04:52:48;;;;;;;9.25;5.05;;;;;;;1.78;93.80;100237.90;1643086;85;26919;-56
2023/12/31 04:55:15;;;;;;;7.92;4.95;;;;;;;1.81;93.82;100240.07;1670253;84;25432;-56
2023/12/31 04:57:41;;;;;;;10.55;5.78;;;;;;;1.84;93.78;100236.91;1670343;85;25482;-54
2023/12/31 05:00:08;;;;;;;9.33;5.22;;;;;;;1.88;93.82;100234.53;1670277;85;26176;-55
2023/12/31 05:02:35;;;;;;;7.03;4.40;;;;;;;1.91;93.62;100234.55;1653647;84;25459;-53
2023/12/31 05:05:02;;;;;;;11.00;5.55;;;;;;;1.91;93.41;100229.20;1690429;84;27269;-54
2023/12/31 05:07:29;;;;;;;10.78;6.78;;;;;;;1.90;93.01;100229.75;1690370;84;25418;-55
2023/12/31 05:09:55;;;;;;;11.78;6.30;;;;;;;1.86;93.18;100229.45;1644628;84;25521;-56
2023/12/31 05:12:21;;;;;;;12.88;7.25;;;;;;;1.82;93.21;100216.86;1668355;84;25680;-57
2023/12/31 05:14:48;;;;;;;12.10;7.20;;;;;;;1.79;93.17;100212.85;1668388;84;25443;-54
2023/12/31 05:17:14;;;;;;;11.12;8.08;;;;;;;1.76;93.52;100213.34;1675920;85;27338;-53
2023/12/31 05:19:40;;;;;;;12.70;7.30;;;;;;;1.75;93.63;100220.27;1675802;85;25646;-55
2023/12/31 05:22:07;;;;;;;12.68;8.38;;;;;;;1.71;93.62;100223.17;1675919;85;25504;-52
2023/12/31 05:24:34;;;;;;;15.85;9.03;;;;;;;1.67;93.82;100221.00;1692615;84;26223;-53
2023/12/31 05:27:00;;;;;;;15.85;9.68;;;;;;;1.61;93.91;100220.66;1668503;84;25477;-54
2023/12/31 05:29:27;;;;;;;17.35;9.00;;;;;;;1.57;94.04;100223.56;1690443;84;27457;-52
2023/12/31 05:31:53;;;;;;;11.60;8.95;;;;;;;1.54;94.29;100228.59;1668296;84;25613;-54
2023/12/31 05:34:19;;;;;;;14.78;9.18;;;;;;;1.51;94.59;100229.88;1668449;84;25456;-53
2023/12/31 05:36:45;;;;;;;19.17;12.00;;;;;;;1.48;95.01;100233.05;1668369;84;25691;-55
2023/12/31 05:39:12;;;;;;;22.07;10.93;;;;;;;1.47;94.93;100234.11;1668339;84;25535;-54
2023/12/31 05:41:39;;;;;;;15.40;9.95;;;;;;;1.43;94.82;100226.32;1690449;84;27343;-52
2023/12/31 05:44:05;;;;;;;19.42;10.13;;;;;;;1.41;95.09;100221.23;1690318;84;25695;-56
2023/12/31 05:46:31;;;;;;;14.28;9.70;;;;;;;1.37;94.86;100224.14;1690396;84;25469;-53
2023/12/31 05:48:57;;;;;;;13.53;8.95;;;;;;;1.34;94.41;100227.83;1690406;84;25622;-52
2023/12/31 05:51:24;;;;;;;17.05;9.90;;;;;;;1.27;93.82;100220.02;1690465;84;25445;-53
2023/12/31 05:53:50;;;;;;;16.55;8.80;;;;;;;1.18;93.39;100219.66;1690425;84;28033;-52
2023/12/31 05:56:16;;;;;;;17.00;8.58;;;;;;;1.08;92.72;100227.52;1690350;84;25453;-55
2023/12/31 05:58:46;;;;;;;17.50;8.80;;;;;;;0.96;92.58;100230.84;1690436;84;25459;-55
2023/12/31 06:01:11;;;;;;;12.82;7.90;;;;;;;0.88;92.46;100240.05;1690203;84;25998;-56
2023/12/31 06:03:38;;;;;;;13.70;7.85;;;;;;;0.81;92.51;100241.55;1649800;85;25437;-56
2023/12/31 06:06:05;;;;;;;15.80;9.60;;;;;;;0.74;92.72;100244.37;1670267;85;27375;-55
2023/12/31 06:08:31;;;;;;;23.38;9.88;;;;;;;0.67;93.20;100241.63;1670189;85;25910;-55
2023/12/31 06:10:57;;;;;;;20.08;10.72;;;;;;;0.66;93.99;100238.67;1670294;85;25439;-51
2023/12/31 06:13:24;;;;;;;15.83;9.38;;;;;;;0.65;94.42;100237.87;1643350;85;25838;-56
2023/12/31 06:15:50;;;;;;;15.30;9.75;;;;;;;0.64;94.78;100234.91;1670309;85;25445;-51
2023/12/31 06:18:16;;;;;;;14.13;9.53;;;;;;;0.60;94.10;100237.80;1643420;85;27927;-50
2023/12/31 06:20:43;;;;;;;17.12;10.60;;;;;;;0.55;94.40;100239.84;1643068;85;25620;-52
2023/12/31 06:23:09;;;;;;;19.70;10.90;;;;;;;0.53;94.88;100237.16;1670278;85;25444;-52
2023/12/31 06:25:36;;;;;;;20.10;11.48;;;;;;;0.52;94.87;100239.00;1670202;85;26223;-54
2023/12/31 06:28:03;;;;;;;17.87;9.95;;;;;;;0.49;94.89;100231.50;1670287;85;25489;-53
2023/12/31 06:30:29;;;;;;;20.68;11.48;;;;;;;0.48;95.09;100239.22;1643164;85;28090;-55
2023/12/31 06:32:55;;;;;;;22.22;12.35;;;;;;;0.46;94.64;100233.84;1670140;85;25413;-55
2023/12/31 06:35:21;;;;;;;21.15;12.20;;;;;;;0.40;94.08;100243.61;1670254;85;25513;-54
2023/12/31 06:37:48;;;;;;;21.02;12.85;;;;;;;0.35;93.76;100243.53;1670236;85;25635;-53
2023/12/31 06:40:15;;;;;;;19.92;12.15;;;;;;;0.28;93.43;100243.69;1670289;85;25415;-53
2023/12/31 06:42:42;;;;;;;24.30;11.80;;;;;;;0.22;93.44;100235.86;1670265;85;26893;-53
2023/12/31 06:45:08;;;;;;;20.85;11.63;;;;;;;0.15;93.39;100235.52;1621085;85;25536;-53
2023/12/31 06:47:34;;;;;;;21.05;11.38;;;;;;;0.09;93.20;100232.47;1670268;85;25423;-54
2023/12/31 06:50:02;;;;;;;21.37;10.98;;;;;;;0.03;93.11;100226.78;1643045;85;25537;-53
2023/12/31 06:52:28;;;;;;;17.10;9.93;;;;;;;-0.01;93.17;100230.44;1643252;85;25513;-57
2023/12/31 06:54:55;;;;;;;17.95;10.72;;;;;;;-0.06;92.96;100227.70;1670250;85;27346;-55
2023/12/31 06:57:21;;;;;;;25.25;11.70;;;;;;;-0.11;92.98;100228.94;1670182;85;25405;-55
2023/12/31 06:59:47;;;;;;;27.22;14.35;;;;;;;-0.16;93.19;100231.51;1670258;85;25549;-56
2023/12/31 07:02:13;;;;;;;27.45;13.22;;;;;;;-0.13;94.70;100234.23;1669846;84;26150;-54
2023/12/31 07:04:40;;;;;;;26.33;14.78;;;;;;;-0.12;95.37;100237.98;1662771;86;25446;-53
2023/12/31 07:07:06;;;;;;;27.13;13.50;;;;;;;-0.06;96.01;100237.00;1617934;86;28138;-54
2023/12/31 07:09:32;;;;;;;26.95;14.35;;;;;;;-0.03;96.82;100237.86;1662702;86;25533;-54
2023/12/31 07:11:59;;;;;;;27.32;14.93;;;;;;;0.05;97.15;100234.02;1662768;86;25438;-52
2023/12/31 07:14:26;;;;;;;31.62;15.75;;;;;;;0.09;97.65;100236.47;1639782;86;26256;-53
2023/12/31 07:16:53;;;;;;;29.70;15.40;;;;;;;0.16;97.67;100240.30;1662779;86;25482;-54
2023/12/31 07:19:19;;;;;;;30.97;15.10;;;;;;;0.17;97.65;100242.72;1662747;85;27917;-52
2023/12/31 07:21:46;;;;;;;31.25;15.25;;;;;;;0.25;97.97;100248.16;1662681;86;25790;-54
2023/12/31 07:24:12;;;;;;;28.52;14.73;;;;;;;0.30;98.13;100242.92;1662871;86;25441;-52
2023/12/31 07:26:39;;;;;;;33.53;15.15;;;;;;;0.34;98.17;100244.06;1662865;86;25752;-52
2023/12/31 07:29:05;;;;;;;31.40;15.72;;;;;;;0.40;98.45;100242.28;1639842;86;25462;-53
2023/12/31 07:31:35;;;;;;;30.62;14.87;;;;;;;0.44;98.41;100236.73;1662893;86;27419;-51
2023/12/31 07:34:00;;;;;;;28.20;14.60;;;;;;;0.50;98.47;100237.11;1662610;86;25769;-55
2023/12/31 07:36:26;;;;;;;25.25;14.05;;;;;;;0.56;98.52;100231.33;1662888;86;25452;-55
2023/12/31 07:38:52;;;;;;;24.70;15.35;;;;;;;0.60;98.14;100229.02;1662854;86;26198;-54
2023/12/31 07:41:19;;;;;;;26.27;15.32;;;;;;;0.63;97.89;100235.98;1662897;86;25520;-53
2023/12/31 07:43:45;;;;;;;32.60;15.55;;;;;;;0.66;98.03;100234.67;1662889;86;27351;-52
2023/12/31 07:46:13;;;;;;;27.27;15.03;;;;;;;0.71;98.07;100230.75;1662753;86;25667;-53
2023/12/31 07:48:39;;;;;;;32.10;15.78;;;;;;;0.75;98.21;100239.88;1662889;86;25436;-53
2023/12/31 07:51:08;;;;;;;28.60;14.95;;;;;;;0.80;98.54;100238.62;1639670;86;26146;-52
2023/12/31 07:53:34;;;;;;;31.63;14.43;;;;;;;0.88;98.68;100241.38;1663127;86;25463;-55
2023/12/31 07:56:01;;;;;;;29.07;14.15;;;;;;;0.96;98.91;100235.62;1662877;86;27908;-52
2023/12/31 07:58:27;;;;;;;29.77;15.28;;;;;;;1.03;99.23;100244.23;1639593;86;25452;-53
2023/12/31 08:00:55;;;;;;;28.52;14.78;;;;;;;1.13;99.47;100244.11;1662857;86;25437;-52
2023/12/31 08:03:22;;;;;;;26.42;15.53;;;;;;;1.19;99.27;100249.26;1671798;85;25615;-52
2023/12/31 08:05:48;;;;;;;32.65;16.02;;;;;;;1.32;99.60;100252.59;1644503;87;25481;-52
2023/12/31 08:08:15;;;;;;;26.68;13.35;;;;;;;1.40;99.58;100258.30;1673285;85;27336;-52
2023/12/31 08:10:41;;;;;;;26.35;14.28;;;;;;;1.53;100.00;100252.30;1673199;85;25448;-53
2023/12/31 08:13:07;;;;;;;26.12;14.60;;;;;;;1.65;100.00;100254.29;1692263;84;25481;-55
2023/12/31 08:15:34;;;;;;;29.05;14.85;;;;;;;1.78;100.00;100251.23;1645621;84;25717;-53
2023/12/31 08:18:00;;;;;;;29.25;16.07;;;;;;;2.01;100.00;100255.47;1691694;84;25435;-54
2023/12/31 08:20:26;;;;;;;32.28;15.50;;;;;;;2.16;100.00;100259.33;1692248;84;27358;-52
2023/12/31 08:22:53;;;;;;;27.60;14.98;;;;;;;2.35;100.00;100267.25;1692160;84;25574;-54
2023/12/31 08:25:19;;;;;;;25.88;15.65;;;;;;;2.50;100.00;100259.86;1692229;84;25413;-52
2023/12/31 08:27:45;;;;;;;29.12;14.63;;;;;;;2.74;100.00;100263.50;1692215;84;25600;-52
2023/12/31 08:30:12;;;;;;;32.33;15.72;;;;;;;2.95;100.00;100264.45;1692261;84;25423;-55
2023/12/31 08:32:39;;;;;;;28.38;16.17;;;;;;;3.13;100.00;100261.34;1668403;84;28142;-52
2023/12/31 08:35:06;;;;;;;31.62;16.57;;;;;;;3.44;100.00;100262.81;1692126;84;25474;-52
2023/12/31 08:37:32;;;;;;;31.05;17.12;;;;;;;3.71;100.00;100266.64;1668266;84;25501;-55
2023/12/31 08:39:58;;;;;;;26.42;14.80;;;;;;;3.81;100.00;100257.02;1692210;84;25552;-52
2023/12/31 08:42:25;;;;;;;26.73;15.10;;;;;;;3.94;99.18;100263.20;1692237;84;25455;-52
2023/12/31 08:44:51;;;;;;;24.80;15.43;;;;;;;4.01;98.12;100265.62;1692216;84;27342;-57
2023/12/31 08:47:17;;;;;;;27.98;15.20;;;;;;;4.10;98.01;100271.53;1668289;84;25731;-53
2023/12/31 08:49:44;;;;;;;25.12;15.25;;;;;;;4.22;97.75;100270.46;1692225;84;25482;-55
2023/12/31 08:52:10;;;;;;;26.95;15.58;;;;;;;4.24;95.80;100275.83;1692185;84;25601;-52
2023/12/31 08:54:36;;;;;;;28.57;15.05;;;;;;;4.33;97.58;100278.78;1692274;84;25426;-56
2023/12/31 08:57:03;;;;;;;27.73;15.75;;;;;;;4.47;97.04;100267.78;1692222;84;27388;-55
2023/12/31 08:59:29;;;;;;;26.20;15.25;;;;;;;4.47;95.89;100276.36;1645878;84;25678;-54
2023/12/31 09:01:56;;;;;;;29.23;16.07;;;;;;;4.49;95.02;100275.55;1668405;84;25443;-53
2023/12/31 09:04:22;;;;;;;36.30;19.07;;;;;;;4.42;94.24;100271.80;1648622;85;25571;-53
2023/12/31 09:06:49;;;;;;;31.95;17.10;;;;;;;4.47;94.30;100273.14;1638431;86;25472;-53
2023/12/31 09:09:15;;;;;;;33.85;18.55;;;;;;;4.53;94.95;100271.80;1633051;87;27338;-53
2023/12/31 09:11:41;;;;;;;32.70;18.55;;;;;;;4.68;95.85;100270.45;1638188;86;25612;-53
2023/12/31 09:14:08;;;;;;;31.00;19.27;;;;;;;4.97;98.21;100269.34;1617515;88;25491;-52
2023/12/31 09:16:34;;;;;;;31.95;17.02;;;;;;;5.25;97.54;100264.43;1645149;87;25548;-55
2023/12/31 09:19:01;;;;;;;32.55;19.48;;;;;;;5.48;97.14;100266.20;1661411;86;25392;-53
2023/12/31 09:21:27;;;;;;;32.65;18.10;;;;;;;5.73;97.31;100254.00;1610551;87;28147;-53
2023/12/31 09:23:53;;;;;;;36.68;20.00;;;;;;;6.04;97.25;100258.41;1616256;86;25544;-56
2023/12/31 09:26:20;;;;;;;35.63;17.92;;;;;;;6.33;96.78;100255.25;1633011;87;25133;-53
2023/12/31 09:28:48;;;;;;;31.82;18.07;;;;;;;6.67;95.65;100258.97;1638166;86;25678;-55
2023/12/31 09:31:14;;;;;;;31.77;17.75;;;;;;;6.95;94.70;100256.54;1590245;87;25525;-54
2023/12/31 09:33:41;;;;;;;36.85;17.42;;;;;;;7.22;93.48;100251.41;1638098;86;27359;-53
2023/12/31 09:36:08;;;;;;;29.15;16.87;;;;;;;7.33;91.11;100248.59;1593280;88;25665;-53
2023/12/31 09:38:34;;;;;;;29.20;15.60;;;;;;;7.62;91.45;100248.48;1620478;87;25531;-52
2023/12/31 09:41:00;;;;;;;26.10;15.78;;;;;;;7.92;90.89;100237.05;1645120;87;26322;-53
2023/12/31 09:43:27;;;;;;;29.82;16.93;;;;;;;8.27;90.79;100241.61;1593667;88;25446;-53
2023/12/31 09:45:56;;;;;;;27.73;16.55;;;;;;;8.62;90.10;100235.41;1620341;87;27311;-54
2023/12/31 09:48:23;;;;;;;28.70;16.67;;;;;;;8.85;88.12;100227.66;1638059;86;25456;-54
2023/12/31 09:50:50;;;;;;;27.82;15.32;;;;;;;9.14;88.07;100237.37;1633016;87;25553;-56
2023/12/31 09:53:19;;;;;;;27.62;15.35;;;;;;;9.45;87.07;100228.64;1616261;86;26261;-53
2023/12/31 09:55:46;;;;;;;25.00;15.38;;;;;;;9.72;85.35;100227.78;1638262;86;25520;-55
2023/12/31 09:58:14;;;;;;;27.80;15.68;;;;;;;9.89;83.48;100220.37;1638143;86;27403;-51
2023/12/31 10:00:40;;;;;;;26.55;15.83;;;;;;;10.02;82.74;100222.23;1638062;86;25464;-53
2023/12/31 10:03:07;;;;;;;21.45;14.15;;;;;;;10.19;82.31;100226.17;1617645;86;25512;-52
2023/12/31 10:05:38;;;;;;;26.33;15.35;;;;;;;10.27;80.84;100220.81;1603228;86;25792;-53
2023/12/31 10:08:08;;;;;;;26.37;14.87;;;;;;;10.24;79.43;100220.08;1670374;85;25408;-54
2023/12/31 10:10:38;;;;;;;34.10;16.23;;;;;;;10.44;80.06;100218.80;1670424;84;29537;-54
2023/12/31 10:13:05;;;;;;;26.57;16.32;;;;;;;10.63;80.03;100210.47;1670275;85;25417;-56
2023/12/31 10:15:31;;;;;;;29.55;16.65;;;;;;;10.88;79.23;100213.61;1621231;85;25482;-56
2023/12/31 10:18:02;;;;;;;27.25;15.85;;;;;;;11.06;78.51;100209.03;1621101;85;26145;-55
2023/12/31 10:20:26;;;;;;;29.23;15.58;;;;;;;11.25;77.58;100210.68;1669955;85;25408;-54
2023/12/31 10:22:53;;;;;;;31.00;16.48;;;;;;;11.39;76.55;100208.09;1670288;85;27412;-54
2023/12/31 10:25:22;;;;;;;34.08;17.35;;;;;;;11.57;76.00;100204.04;1643123;85;25583;-54
2023/12/31 10:27:50;;;;;;;28.97;16.57;;;;;;;11.73;75.19;100201.11;1643857;85;25473;-53
2023/12/31 10:30:17;;;;;;;25.48;14.83;;;;;;;11.83;73.96;100195.91;1643063;85;26250;-54
2023/12/31 10:32:43;;;;;;;24.95;15.13;;;;;;;11.74;72.66;100189.70;1670277;85;25411;-53
2023/12/31 10:35:10;;;;;;;25.20;14.40;;;;;;;11.39;70.74;100195.91;1643040;85;27351;-55
2023/12/31 10:37:36;;;;;;;26.42;13.90;;;;;;;11.14;70.69;100197.44;1670178;85;25539;-56
2023/12/31 10:40:19;;;;;;;29.25;15.68;;;;;;;10.83;70.30;100195.59;1643506;85;25492;-54
2023/12/31 10:42:49;;;;;;;29.90;15.35;;;;;;;10.61;70.72;100193.75;1670267;85;25634;-58
2023/12/31 10:45:19;;;;;;;27.93;14.33;;;;;;;10.39;71.24;100191.89;1644203;85;25436;-56
2023/12/31 10:47:53;;;;;;;27.37;15.80;;;;;;;10.44;71.59;100191.77;1621208;85;28070;-55
2023/12/31 10:50:24;;;;;;;26.90;14.83;;;;;;;10.60;73.12;100189.44;1642204;85;25436;-53
2023/12/31 10:52:53;;;;;;;26.73;14.45;;;;;;;10.78;71.29;100193.03;1643042;85;25453;-56
2023/12/31 10:55:20;;;;;;;29.20;15.78;;;;;;;10.80;72.54;100185.39;1670336;85;26338;-54
2023/12/31 10:57:47;;;;;;;23.87;14.47;;;;;;;11.09;72.69;100185.97;1670312;85;25403;-52
2023/12/31 11:00:15;;;;;;;31.12;15.32;;;;;;;11.30;72.40;100169.92;1643192;85;27892;-56
2023/12/31 11:02:45;;;;;;;26.33;14.73;;;;;;;11.36;70.55;100165.95;1643050;85;25478;-57
2023/12/31 11:05:17;;;;;;;24.77;14.23;;;;;;;11.21;68.76;100163.92;1662738;84;25517;-56
2023/12/31 11:07:46;;;;;;;24.98;13.40;;;;;;;11.29;70.59;100158.84;1690568;84;26292;-56
2023/12/31 11:10:13;;;;;;;24.20;13.95;;;;;;;11.62;71.21;100155.69;1690800;84;25430;-56
2023/12/31 11:12:40;;;;;;;24.75;13.88;;;;;;;11.99;69.85;100152.11;1668437;84;27871;-56
2023/12/31 11:15:17;;;;;;;23.02;13.35;;;;;;;12.01;68.12;100151.22;1690409;84;25537;-55
2023/12/31 11:18:06;;;;;;;22.82;13.55;;;;;;;12.02;67.31;100143.31;1690536;84;25505;-56
2023/12/31 11:21:04;;;;;;;23.67;13.70;;;;;;;12.23;66.62;100136.66;1690301;84;25671;-56